sensor_id;sensor_type;location;lat;lon;timestamp;temperature;humidity
22471;DHT22;11402;51.374;6.594;2023-02-19T00:01:17;11.10;99.90
22471;DHT22;11402;51.374;6.594;2023-02-19T00:03:52;11.00;99.90
22471;DHT22;11402;51.374;6.594;2023-02-19T00:06:19;11.00;99.90
22471;DHT22;11402;51.374;6.594;2023-02-19T00:08:45;10.90;99.90
22471;DHT22;11402;51.374;6.594;2023-02-19T00:11:13;10.90;99.90
22471;DHT22;11402;51.374;6.594;2023-02-19T00:13:42;10.90;99.90
22471;DHT22;11402;51.374;6.594;2023-02-19T00:16:10;11.00;99.90
22471;DHT22;11402;51.374;6.594;2023-02-19T00:18:36;10.90;99.90
22471;DHT22;11402;51.374;6.594;2023-02-19T00:21:02;10.90;99.90
22471;DHT22;11402;51.374;6.594;2023-02-19T00:23:28;11.00;99.90
22471;DHT22;11402;51.374;6.594;2023-02-19T00:25:54;10.90;99.90
22471;DHT22;11402;51.374;6.594;2023-02-19T00:28:20;10.90;99.90
22471;DHT22;11402;51.374;6.594;2023-02-19T00:30:45;10.90;99.90
22471;DHT22;11402;51.374;6.594;2023-02-19T00:33:11;10.90;99.90
22471;DHT22;11402;51.374;6.594;2023-02-19T00:35:37;10.90;99.90
22471;DHT22;11402;51.374;6.594;2023-02-19T00:38:03;10.80;99.90
22471;DHT22;11402;51.374;6.594;2023-02-19T00:40:28;10.80;99.90
22471;DHT22;11402;51.374;6.594;2023-02-19T00:42:54;10.80;99.90
22471;DHT22;11402;51.374;6.594;2023-02-19T00:45:19;10.80;99.90
22471;DHT22;11402;51.374;6.594;2023-02-19T00:47:45;10.80;99.90
22471;DHT22;11402;51.374;6.594;2023-02-19T00:50:10;10.90;99.90
22471;DHT22;11402;51.374;6.594;2023-02-19T00:52:36;10.80;99.90
22471;DHT22;11402;51.374;6.594;2023-02-19T00:55:02;10.80;99.90
22471;DHT22;11402;51.374;6.594;2023-02-19T00:57:28;10.80;99.90
22471;DHT22;11402;51.374;6.594;2023-02-19T00:59:53;10.90;99.90
22471;DHT22;11402;51.374;6.594;2023-02-19T01:02:19;10.80;99.90
22471;DHT22;11402;51.374;6.594;2023-02-19T01:04:44;10.80;99.90
22471;DHT22;11402;51.374;6.594;2023-02-19T01:07:10;10.80;99.90
22471;DHT22;11402;51.374;6.594;2023-02-19T01:09:36;10.80;99.90
22471;DHT22;11402;51.374;6.594;2023-02-19T01:12:03;10.80;99.90
22471;DHT22;11402;51.374;6.594;2023-02-19T01:14:29;10.80;99.90
22471;DHT22;11402;51.374;6.594;2023-02-19T01:16:54;10.80;99.90
22471;DHT22;11402;51.374;6.594;2023-02-19T01:19:20;10.80;99.90
22471;DHT22;11402;51.374;6.594;2023-02-19T01:21:46;10.80;99.90
22471;DHT22;11402;51.374;6.594;2023-02-19T01:24:11;10.80;99.90
22471;DHT22;11402;51.374;6.594;2023-02-19T01:26:37;10.80;99.90
22471;DHT22;11402;51.374;6.594;2023-02-19T01:29:02;10.80;99.90
22471;DHT22;11402;51.374;6.594;2023-02-19T01:31:29;10.80;99.90
22471;DHT22;11402;51.374;6.594;2023-02-19T01:33:58;10.80;99.90
22471;DHT22;11402;51.374;6.594;2023-02-19T01:36:25;10.70;99.90
22471;DHT22;11402;51.374;6.594;2023-02-19T01:38:51;10.80;99.90
22471;DHT22;11402;51.374;6.594;2023-02-19T01:41:20;10.80;99.90
22471;DHT22;11402;51.374;6.594;2023-02-19T01:46:31;10.70;99.90
22471;DHT22;11402;51.374;6.594;2023-02-19T01:51:43;10.70;99.90
22471;DHT22;11402;51.374;6.594;2023-02-19T01:54:12;10.70;99.90
22471;DHT22;11402;51.374;6.594;2023-02-19T01:56:39;10.80;99.90
22471;DHT22;11402;51.374;6.594;2023-02-19T01:59:07;10.70;99.90
22471;DHT22;11402;51.374;6.594;2023-02-19T02:01:34;10.70;99.90
22471;DHT22;11402;51.374;6.594;2023-02-19T02:04:00;10.70;99.90
22471;DHT22;11402;51.374;6.594;2023-02-19T02:06:41;10.70;99.90
22471;DHT22;11402;51.374;6.594;2023-02-19T02:09:08;10.70;99.90
22471;DHT22;11402;51.374;6.594;2023-02-19T02:11:52;10.70;99.90
22471;DHT22;11402;51.374;6.594;2023-02-19T02:14:21;10.70;99.90
22471;DHT22;11402;51.374;6.594;2023-02-19T02:17:08;10.70;99.90
22471;DHT22;11402;51.374;6.594;2023-02-19T02:22:23;10.70;99.90
22471;DHT22;11402;51.374;6.594;2023-02-19T02:25:16;10.70;99.90
22471;DHT22;11402;51.374;6.594;2023-02-19T02:30:45;10.60;99.90
22471;DHT22;11402;51.374;6.594;2023-02-19T02:33:24;10.70;99.90
22471;DHT22;11402;51.374;6.594;2023-02-19T02:36:21;10.70;99.90
22471;DHT22;11402;51.374;6.594;2023-02-19T02:38:49;10.80;99.90
22471;DHT22;11402;51.374;6.594;2023-02-19T02:41:17;10.80;99.90
22471;DHT22;11402;51.374;6.594;2023-02-19T02:43:43;10.80;99.90
22471;DHT22;11402;51.374;6.594;2023-02-19T02:46:17;10.80;99.90
22471;DHT22;11402;51.374;6.594;2023-02-19T02:48:47;10.80;99.90
22471;DHT22;11402;51.374;6.594;2023-02-19T02:51:34;10.80;99.90
22471;DHT22;11402;51.374;6.594;2023-02-19T02:54:11;10.80;99.90
22471;DHT22;11402;51.374;6.594;2023-02-19T02:56:57;10.80;99.90
22471;DHT22;11402;51.374;6.594;2023-02-19T02:59:25;10.80;99.90
22471;DHT22;11402;51.374;6.594;2023-02-19T03:04:51;10.70;99.90
22471;DHT22;11402;51.374;6.594;2023-02-19T03:08:03;10.70;99.90
22471;DHT22;11402;51.374;6.594;2023-02-19T03:12:55;10.60;99.90
22471;DHT22;11402;51.374;6.594;2023-02-19T03:15:48;10.60;99.90
22471;DHT22;11402;51.374;6.594;2023-02-19T03:18:35;10.60;99.90
22471;DHT22;11402;51.374;6.594;2023-02-19T03:21:22;10.60;99.90
22471;DHT22;11402;51.374;6.594;2023-02-19T03:23:49;10.60;99.90
22471;DHT22;11402;51.374;6.594;2023-02-19T03:26:34;10.60;99.90
22471;DHT22;11402;51.374;6.594;2023-02-19T03:29:02;10.70;99.90
22471;DHT22;11402;51.374;6.594;2023-02-19T03:31:49;10.70;99.90
22471;DHT22;11402;51.374;6.594;2023-02-19T03:34:21;10.80;99.90
22471;DHT22;11402;51.374;6.594;2023-02-19T03:36:52;10.80;99.90
22471;DHT22;11402;51.374;6.594;2023-02-19T03:39:21;10.80;99.90
22471;DHT22;11402;51.374;6.594;2023-02-19T03:47:01;10.70;99.90
22471;DHT22;11402;51.374;6.594;2023-02-19T03:49:29;10.70;99.90
22471;DHT22;11402;51.374;6.594;2023-02-19T03:52:02;10.70;99.90
22471;DHT22;11402;51.374;6.594;2023-02-19T03:54:57;10.60;99.90
22471;DHT22;11402;51.374;6.594;2023-02-19T04:03:25;10.50;99.90
22471;DHT22;11402;51.374;6.594;2023-02-19T04:05:59;10.50;99.90
22471;DHT22;11402;51.374;6.594;2023-02-19T04:08:26;10.40;99.90
22471;DHT22;11402;51.374;6.594;2023-02-19T04:10:52;10.40;99.90
22471;DHT22;11402;51.374;6.594;2023-02-19T04:13:23;10.30;99.90
22471;DHT22;11402;51.374;6.594;2023-02-19T04:15:53;10.40;99.90
22471;DHT22;11402;51.374;6.594;2023-02-19T04:18:24;10.40;99.90
22471;DHT22;11402;51.374;6.594;2023-02-19T04:20:51;10.40;99.90
22471;DHT22;11402;51.374;6.594;2023-02-19T04:23:21;10.40;99.90
22471;DHT22;11402;51.374;6.594;2023-02-19T04:25:52;10.50;99.90
22471;DHT22;11402;51.374;6.594;2023-02-19T04:28:19;10.30;99.90
22471;DHT22;11402;51.374;6.594;2023-02-19T04:30:45;10.30;99.90
22471;DHT22;11402;51.374;6.594;2023-02-19T04:33:11;10.30;99.90
22471;DHT22;11402;51.374;6.594;2023-02-19T04:35:36;10.30;99.90
22471;DHT22;11402;51.374;6.594;2023-02-19T04:38:02;10.30;99.90
22471;DHT22;11402;51.374;6.594;2023-02-19T04:40:28;10.30;99.90
22471;DHT22;11402;51.374;6.594;2023-02-19T04:42:53;10.30;99.90
22471;DHT22;11402;51.374;6.594;2023-02-19T04:45:19;10.40;99.90
22471;DHT22;11402;51.374;6.594;2023-02-19T04:47:44;10.40;99.90
22471;DHT22;11402;51.374;6.594;2023-02-19T04:50:10;10.30;99.90
22471;DHT22;11402;51.374;6.594;2023-02-19T04:52:35;10.30;99.90
22471;DHT22;11402;51.374;6.594;2023-02-19T04:55:01;10.30;99.90
22471;DHT22;11402;51.374;6.594;2023-02-19T04:57:27;10.20;99.90
22471;DHT22;11402;51.374;6.594;2023-02-19T04:59:52;10.20;99.90
22471;DHT22;11402;51.374;6.594;2023-02-19T05:02:18;10.20;99.90
22471;DHT22;11402;51.374;6.594;2023-02-19T05:04:43;10.20;99.90
22471;DHT22;11402;51.374;6.594;2023-02-19T05:07:09;10.20;99.90
22471;DHT22;11402;51.374;6.594;2023-02-19T05:09:34;10.20;99.90
22471;DHT22;11402;51.374;6.594;2023-02-19T05:12:00;10.20;99.90
22471;DHT22;11402;51.374;6.594;2023-02-19T05:14:26;10.20;99.90
22471;DHT22;11402;51.374;6.594;2023-02-19T05:16:51;10.10;99.90
22471;DHT22;11402;51.374;6.594;2023-02-19T05:19:17;10.20;99.90
22471;DHT22;11402;51.374;6.594;2023-02-19T05:21:42;10.10;99.90
22471;DHT22;11402;51.374;6.594;2023-02-19T05:24:08;10.20;99.90
22471;DHT22;11402;51.374;6.594;2023-02-19T05:26:34;10.20;99.90
22471;DHT22;11402;51.374;6.594;2023-02-19T05:29:00;10.30;99.90
22471;DHT22;11402;51.374;6.594;2023-02-19T05:31:26;10.30;99.90
22471;DHT22;11402;51.374;6.594;2023-02-19T05:33:54;10.30;99.90
22471;DHT22;11402;51.374;6.594;2023-02-19T05:36:21;10.20;99.90
22471;DHT22;11402;51.374;6.594;2023-02-19T05:38:51;10.30;99.90
22471;DHT22;11402;51.374;6.594;2023-02-19T05:41:23;10.20;99.90
22471;DHT22;11402;51.374;6.594;2023-02-19T05:43:49;10.10;99.90
22471;DHT22;11402;51.374;6.594;2023-02-19T05:46:17;10.10;99.90
22471;DHT22;11402;51.374;6.594;2023-02-19T05:48:45;10.00;99.90
22471;DHT22;11402;51.374;6.594;2023-02-19T05:51:13;10.00;99.90
22471;DHT22;11402;51.374;6.594;2023-02-19T05:53:39;10.10;99.90
22471;DHT22;11402;51.374;6.594;2023-02-19T05:56:30;10.20;99.90
22471;DHT22;11402;51.374;6.594;2023-02-19T05:58:57;10.10;99.90
22471;DHT22;11402;51.374;6.594;2023-02-19T06:01:25;10.10;99.90
22471;DHT22;11402;51.374;6.594;2023-02-19T06:03:51;10.10;99.90
22471;DHT22;11402;51.374;6.594;2023-02-19T06:06:20;10.10;99.90
22471;DHT22;11402;51.374;6.594;2023-02-19T06:08:47;10.00;99.90
22471;DHT22;11402;51.374;6.594;2023-02-19T06:11:12;10.10;99.90
22471;DHT22;11402;51.374;6.594;2023-02-19T06:13:38;10.10;99.90
22471;DHT22;11402;51.374;6.594;2023-02-19T06:16:05;10.10;99.90
22471;DHT22;11402;51.374;6.594;2023-02-19T06:18:31;10.00;99.90
22471;DHT22;11402;51.374;6.594;2023-02-19T06:21:03;10.00;99.90
22471;DHT22;11402;51.374;6.594;2023-02-19T06:23:30;9.90;99.90
22471;DHT22;11402;51.374;6.594;2023-02-19T06:28:33;9.90;99.90
22471;DHT22;11402;51.374;6.594;2023-02-19T06:30:59;10.00;99.90
22471;DHT22;11402;51.374;6.594;2023-02-19T06:33:26;10.00;99.90
22471;DHT22;11402;51.374;6.594;2023-02-19T06:35:52;10.10;99.90
22471;DHT22;11402;51.374;6.594;2023-02-19T06:38:20;10.00;99.90
22471;DHT22;11402;51.374;6.594;2023-02-19T06:40:45;10.10;99.90
22471;DHT22;11402;51.374;6.594;2023-02-19T06:43:11;10.00;99.90
22471;DHT22;11402;51.374;6.594;2023-02-19T06:45:37;10.00;99.90
22471;DHT22;11402;51.374;6.594;2023-02-19T06:48:02;10.00;99.90
22471;DHT22;11402;51.374;6.594;2023-02-19T06:50:28;10.10;99.90
22471;DHT22;11402;51.374;6.594;2023-02-19T06:52:53;10.10;99.90
22471;DHT22;11402;51.374;6.594;2023-02-19T06:55:19;10.20;99.90
22471;DHT22;11402;51.374;6.594;2023-02-19T06:57:44;10.10;99.90
22471;DHT22;11402;51.374;6.594;2023-02-19T07:00:10;10.00;99.90
22471;DHT22;11402;51.374;6.594;2023-02-19T07:02:36;9.90;99.90
22471;DHT22;11402;51.374;6.594;2023-02-19T07:05:02;9.90;99.90
22471;DHT22;11402;51.374;6.594;2023-02-19T07:07:27;10.00;99.90
22471;DHT22;11402;51.374;6.594;2023-02-19T07:09:53;10.00;99.90
22471;DHT22;11402;51.374;6.594;2023-02-19T07:12:18;10.00;99.90
22471;DHT22;11402;51.374;6.594;2023-02-19T07:14:44;10.00;99.90
22471;DHT22;11402;51.374;6.594;2023-02-19T07:17:09;10.00;99.90
22471;DHT22;11402;51.374;6.594;2023-02-19T07:19:35;9.90;99.90
22471;DHT22;11402;51.374;6.594;2023-02-19T07:22:00;10.00;99.90
22471;DHT22;11402;51.374;6.594;2023-02-19T07:24:26;10.10;99.90
22471;DHT22;11402;51.374;6.594;2023-02-19T07:26:52;10.00;99.90
22471;DHT22;11402;51.374;6.594;2023-02-19T07:29:17;10.00;99.90
22471;DHT22;11402;51.374;6.594;2023-02-19T07:31:43;9.90;99.90
22471;DHT22;11402;51.374;6.594;2023-02-19T07:34:08;9.80;99.90
22471;DHT22;11402;51.374;6.594;2023-02-19T07:36:34;9.80;99.90
22471;DHT22;11402;51.374;6.594;2023-02-19T07:38:59;9.80;99.90
22471;DHT22;11402;51.374;6.594;2023-02-19T07:41:26;9.90;99.90
22471;DHT22;11402;51.374;6.594;2023-02-19T07:43:52;10.00;99.90
22471;DHT22;11402;51.374;6.594;2023-02-19T07:46:19;10.00;99.90
22471;DHT22;11402;51.374;6.594;2023-02-19T07:48:45;10.00;99.90
22471;DHT22;11402;51.374;6.594;2023-02-19T07:51:15;10.10;99.90
22471;DHT22;11402;51.374;6.594;2023-02-19T07:53:47;10.10;99.90
22471;DHT22;11402;51.374;6.594;2023-02-19T07:56:15;10.00;99.90
22471;DHT22;11402;51.374;6.594;2023-02-19T07:58:41;10.00;99.90
22471;DHT22;11402;51.374;6.594;2023-02-19T08:03:33;10.00;99.90
22471;DHT22;11402;51.374;6.594;2023-02-19T08:05:58;10.00;99.90
22471;DHT22;11402;51.374;6.594;2023-02-19T08:08:24;10.00;99.90
22471;DHT22;11402;51.374;6.594;2023-02-19T08:10:49;10.10;99.90
22471;DHT22;11402;51.374;6.594;2023-02-19T08:13:33;10.10;99.90
22471;DHT22;11402;51.374;6.594;2023-02-19T08:18:29;10.10;99.90
22471;DHT22;11402;51.374;6.594;2023-02-19T08:20:56;10.10;99.90
22471;DHT22;11402;51.374;6.594;2023-02-19T08:23:22;10.10;99.90
22471;DHT22;11402;51.374;6.594;2023-02-19T08:25:49;10.10;99.90
22471;DHT22;11402;51.374;6.594;2023-02-19T08:28:15;10.10;99.90
22471;DHT22;11402;51.374;6.594;2023-02-19T08:30:42;10.10;99.90
22471;DHT22;11402;51.374;6.594;2023-02-19T08:33:13;10.00;99.90
22471;DHT22;11402;51.374;6.594;2023-02-19T08:35:39;10.10;99.90
22471;DHT22;11402;51.374;6.594;2023-02-19T08:38:06;10.30;99.90
22471;DHT22;11402;51.374;6.594;2023-02-19T08:40:32;10.30;99.90
22471;DHT22;11402;51.374;6.594;2023-02-19T08:43:10;10.30;99.90
22471;DHT22;11402;51.374;6.594;2023-02-19T08:45:36;10.30;99.90
22471;DHT22;11402;51.374;6.594;2023-02-19T08:48:03;10.40;99.90
22471;DHT22;11402;51.374;6.594;2023-02-19T08:50:29;10.40;99.90
22471;DHT22;11402;51.374;6.594;2023-02-19T08:52:55;10.40;99.90
22471;DHT22;11402;51.374;6.594;2023-02-19T08:55:23;10.40;99.90
22471;DHT22;11402;51.374;6.594;2023-02-19T08:57:48;10.40;99.90
22471;DHT22;11402;51.374;6.594;2023-02-19T09:00:14;10.30;99.90
22471;DHT22;11402;51.374;6.594;2023-02-19T09:02:40;10.30;99.90
22471;DHT22;11402;51.374;6.594;2023-02-19T09:05:05;10.30;99.90
22471;DHT22;11402;51.374;6.594;2023-02-19T09:07:31;10.40;99.90
22471;DHT22;11402;51.374;6.594;2023-02-19T09:09:57;10.30;99.90
22471;DHT22;11402;51.374;6.594;2023-02-19T09:12:23;10.20;99.90
22471;DHT22;11402;51.374;6.594;2023-02-19T09:14:49;10.20;99.90
22471;DHT22;11402;51.374;6.594;2023-02-19T09:17:14;10.20;99.90
22471;DHT22;11402;51.374;6.594;2023-02-19T09:19:40;10.20;99.90
22471;DHT22;11402;51.374;6.594;2023-02-19T09:22:06;10.20;99.90
22471;DHT22;11402;51.374;6.594;2023-02-19T09:24:33;10.20;99.90
22471;DHT22;11402;51.374;6.594;2023-02-19T09:26:59;10.10;99.90
22471;DHT22;11402;51.374;6.594;2023-02-19T09:29:26;10.10;99.90
22471;DHT22;11402;51.374;6.594;2023-02-19T09:31:58;10.10;99.90
22471;DHT22;11402;51.374;6.594;2023-02-19T09:34:26;10.00;99.90
22471;DHT22;11402;51.374;6.594;2023-02-19T09:36:52;9.80;99.90
22471;DHT22;11402;51.374;6.594;2023-02-19T09:39:18;9.80;99.90
22471;DHT22;11402;51.374;6.594;2023-02-19T09:41:57;10.00;99.90
22471;DHT22;11402;51.374;6.594;2023-02-19T09:44:28;10.10;99.90
22471;DHT22;11402;51.374;6.594;2023-02-19T09:46:55;10.10;99.90
22471;DHT22;11402;51.374;6.594;2023-02-19T09:49:34;10.10;99.90
22471;DHT22;11402;51.374;6.594;2023-02-19T09:52:14;10.10;99.90
22471;DHT22;11402;51.374;6.594;2023-02-19T09:54:42;10.10;99.90
22471;DHT22;11402;51.374;6.594;2023-02-19T09:57:17;10.30;99.90
22471;DHT22;11402;51.374;6.594;2023-02-19T09:59:52;10.30;99.90
22471;DHT22;11402;51.374;6.594;2023-02-19T10:02:23;10.40;99.90
22471;DHT22;11402;51.374;6.594;2023-02-19T10:04:50;10.40;99.90
22471;DHT22;11402;51.374;6.594;2023-02-19T10:07:25;10.50;99.90
22471;DHT22;11402;51.374;6.594;2023-02-19T10:09:57;10.50;99.90
22471;DHT22;11402;51.374;6.594;2023-02-19T10:12:27;10.70;99.90
22471;DHT22;11402;51.374;6.594;2023-02-19T10:15:04;10.70;99.90
22471;DHT22;11402;51.374;6.594;2023-02-19T10:17:33;10.70;99.90
22471;DHT22;11402;51.374;6.594;2023-02-19T10:20:00;10.80;99.90
22471;DHT22;11402;51.374;6.594;2023-02-19T10:22:30;10.60;99.90
22471;DHT22;11402;51.374;6.594;2023-02-19T10:24:57;10.70;99.90
22471;DHT22;11402;51.374;6.594;2023-02-19T10:27:26;10.60;99.90
22471;DHT22;11402;51.374;6.594;2023-02-19T10:29:53;10.40;99.90
22471;DHT22;11402;51.374;6.594;2023-02-19T10:32:21;10.30;99.90
22471;DHT22;11402;51.374;6.594;2023-02-19T10:35:15;10.20;99.90
22471;DHT22;11402;51.374;6.594;2023-02-19T10:37:46;10.30;99.90
22471;DHT22;11402;51.374;6.594;2023-02-19T10:40:15;10.20;99.90
22471;DHT22;11402;51.374;6.594;2023-02-19T10:43:08;10.20;99.90
22471;DHT22;11402;51.374;6.594;2023-02-19T10:45:48;10.20;99.90
22471;DHT22;11402;51.374;6.594;2023-02-19T10:48:22;10.30;99.90
22471;DHT22;11402;51.374;6.594;2023-02-19T10:50:54;10.50;99.90
22471;DHT22;11402;51.374;6.594;2023-02-19T10:53:23;10.50;99.90
22471;DHT22;11402;51.374;6.594;2023-02-19T10:56:14;10.60;99.90
22471;DHT22;11402;51.374;6.594;2023-02-19T10:58:42;10.80;99.90
22471;DHT22;11402;51.374;6.594;2023-02-19T11:01:19;10.60;99.90
22471;DHT22;11402;51.374;6.594;2023-02-19T11:03:50;10.60;99.90
22471;DHT22;11402;51.374;6.594;2023-02-19T11:06:18;10.70;99.90
22471;DHT22;11402;51.374;6.594;2023-02-19T11:08:57;10.60;99.90
22471;DHT22;11402;51.374;6.594;2023-02-19T11:11:33;10.40;99.90
22471;DHT22;11402;51.374;6.594;2023-02-19T11:14:02;10.40;99.90
22471;DHT22;11402;51.374;6.594;2023-02-19T11:16:38;10.30;99.90
22471;DHT22;11402;51.374;6.594;2023-02-19T11:19:04;10.10;99.90
22471;DHT22;11402;51.374;6.594;2023-02-19T11:21:32;10.20;99.90
22471;DHT22;11402;51.374;6.594;2023-02-19T11:23:59;10.00;99.90
22471;DHT22;11402;51.374;6.594;2023-02-19T11:26:31;9.90;99.90
22471;DHT22;11402;51.374;6.594;2023-02-19T11:29:01;9.90;99.90
22471;DHT22;11402;51.374;6.594;2023-02-19T11:31:35;9.80;99.90
22471;DHT22;11402;51.374;6.594;2023-02-19T11:34:21;10.10;99.90
22471;DHT22;11402;51.374;6.594;2023-02-19T11:37:08;10.30;99.90
22471;DHT22;11402;51.374;6.594;2023-02-19T11:39:34;10.30;99.90
22471;DHT22;11402;51.374;6.594;2023-02-19T11:45:04;10.30;99.90
22471;DHT22;11402;51.374;6.594;2023-02-19T11:48:03;10.20;99.90
22471;DHT22;11402;51.374;6.594;2023-02-19T11:50:48;10.20;99.90
22471;DHT22;11402;51.374;6.594;2023-02-19T11:53:30;10.20;99.90
22471;DHT22;11402;51.374;6.594;2023-02-19T11:56:22;10.30;99.90
22471;DHT22;11402;51.374;6.594;2023-02-19T11:59:03;10.30;99.90
22471;DHT22;11402;51.374;6.594;2023-02-19T12:05:00;10.30;99.90
22471;DHT22;11402;51.374;6.594;2023-02-19T12:07:46;10.50;99.90
22471;DHT22;11402;51.374;6.594;2023-02-19T12:10:18;10.60;99.90
22471;DHT22;11402;51.374;6.594;2023-02-19T12:12:58;10.80;99.90
22471;DHT22;11402;51.374;6.594;2023-02-19T12:18:19;10.80;99.90
22471;DHT22;11402;51.374;6.594;2023-02-19T12:20:55;10.90;99.90
22471;DHT22;11402;51.374;6.594;2023-02-19T12:23:51;10.90;99.90
22471;DHT22;11402;51.374;6.594;2023-02-19T12:32:20;10.90;99.90
22471;DHT22;11402;51.374;6.594;2023-02-19T12:43:13;10.80;99.90
22471;DHT22;11402;51.374;6.594;2023-02-19T12:53:55;10.90;99.90
22471;DHT22;11402;51.374;6.594;2023-02-19T12:56:38;10.90;99.90
22471;DHT22;11402;51.374;6.594;2023-02-19T12:59:27;10.90;99.90
22471;DHT22;11402;51.374;6.594;2023-02-19T13:04:38;11.10;99.90
22471;DHT22;11402;51.374;6.594;2023-02-19T13:07:13;11.20;99.90
22471;DHT22;11402;51.374;6.594;2023-02-19T13:09:48;11.10;99.90
22471;DHT22;11402;51.374;6.594;2023-02-19T13:12:42;11.00;99.90
22471;DHT22;11402;51.374;6.594;2023-02-19T13:17:43;10.80;99.90
22471;DHT22;11402;51.374;6.594;2023-02-19T13:20:19;10.80;99.90
22471;DHT22;11402;51.374;6.594;2023-02-19T13:23:10;10.70;99.90
22471;DHT22;11402;51.374;6.594;2023-02-19T13:28:58;10.90;99.90
22471;DHT22;11402;51.374;6.594;2023-02-19T13:37:15;10.90;99.90
22471;DHT22;11402;51.374;6.594;2023-02-19T13:39:49;10.90;99.90
22471;DHT22;11402;51.374;6.594;2023-02-19T13:42:25;10.80;99.90
22471;DHT22;11402;51.374;6.594;2023-02-19T13:44:51;10.80;99.90
22471;DHT22;11402;51.374;6.594;2023-02-19T13:47:48;10.80;99.90
22471;DHT22;11402;51.374;6.594;2023-02-19T13:50:33;10.80;99.90
22471;DHT22;11402;51.374;6.594;2023-02-19T13:55:46;10.80;99.90
22471;DHT22;11402;51.374;6.594;2023-02-19T14:01:16;10.90;99.90
22471;DHT22;11402;51.374;6.594;2023-02-19T14:03:52;10.90;99.90
22471;DHT22;11402;51.374;6.594;2023-02-19T14:06:18;10.90;99.90
22471;DHT22;11402;51.374;6.594;2023-02-19T14:11:14;11.00;99.90
22471;DHT22;11402;51.374;6.594;2023-02-19T14:13:54;10.90;99.90
22471;DHT22;11402;51.374;6.594;2023-02-19T14:16:30;10.80;99.90
22471;DHT22;11402;51.374;6.594;2023-02-19T14:18:56;10.70;99.90
22471;DHT22;11402;51.374;6.594;2023-02-19T14:21:24;10.70;99.90
22471;DHT22;11402;51.374;6.594;2023-02-19T14:23:55;10.60;99.90
22471;DHT22;11402;51.374;6.594;2023-02-19T14:26:23;10.60;99.90
22471;DHT22;11402;51.374;6.594;2023-02-19T14:28:50;10.60;99.90
22471;DHT22;11402;51.374;6.594;2023-02-19T14:31:31;10.60;99.90
22471;DHT22;11402;51.374;6.594;2023-02-19T14:34:00;10.60;99.90
22471;DHT22;11402;51.374;6.594;2023-02-19T14:39:17;10.70;99.90
22471;DHT22;11402;51.374;6.594;2023-02-19T14:41:50;10.70;99.90
22471;DHT22;11402;51.374;6.594;2023-02-19T14:44:24;10.60;99.90
22471;DHT22;11402;51.374;6.594;2023-02-19T14:49:39;10.60;99.90
22471;DHT22;11402;51.374;6.594;2023-02-19T14:52:33;10.60;99.90
22471;DHT22;11402;51.374;6.594;2023-02-19T14:55:15;10.60;99.90
22471;DHT22;11402;51.374;6.594;2023-02-19T14:57:46;10.80;99.90
22471;DHT22;11402;51.374;6.594;2023-02-19T15:00:23;10.70;99.90
22471;DHT22;11402;51.374;6.594;2023-02-19T15:02:51;10.80;99.90
22471;DHT22;11402;51.374;6.594;2023-02-19T15:05:21;11.00;99.90
22471;DHT22;11402;51.374;6.594;2023-02-19T15:07:48;10.90;99.90
22471;DHT22;11402;51.374;6.594;2023-02-19T15:10:14;11.00;99.90
22471;DHT22;11402;51.374;6.594;2023-02-19T15:12:48;11.00;99.90
22471;DHT22;11402;51.374;6.594;2023-02-19T15:15:21;11.00;99.90
22471;DHT22;11402;51.374;6.594;2023-02-19T15:17:49;11.10;99.90
22471;DHT22;11402;51.374;6.594;2023-02-19T15:20:24;11.00;99.90
22471;DHT22;11402;51.374;6.594;2023-02-19T15:22:51;11.00;99.90
22471;DHT22;11402;51.374;6.594;2023-02-19T15:25:20;11.00;99.90
22471;DHT22;11402;51.374;6.594;2023-02-19T15:27:46;11.00;99.90
22471;DHT22;11402;51.374;6.594;2023-02-19T15:30:20;11.00;99.90
22471;DHT22;11402;51.374;6.594;2023-02-19T15:32:55;11.10;99.90
22471;DHT22;11402;51.374;6.594;2023-02-19T15:35:21;11.00;99.90
22471;DHT22;11402;51.374;6.594;2023-02-19T15:37:48;11.00;99.90
22471;DHT22;11402;51.374;6.594;2023-02-19T15:40:14;11.00;99.90
22471;DHT22;11402;51.374;6.594;2023-02-19T15:42:43;10.80;99.90
22471;DHT22;11402;51.374;6.594;2023-02-19T15:45:18;10.80;99.90
22471;DHT22;11402;51.374;6.594;2023-02-19T15:47:55;10.60;99.90
22471;DHT22;11402;51.374;6.594;2023-02-19T15:50:29;10.60;99.90
22471;DHT22;11402;51.374;6.594;2023-02-19T15:53:04;10.40;99.90
22471;DHT22;11402;51.374;6.594;2023-02-19T16:00:54;10.20;99.90
22471;DHT22;11402;51.374;6.594;2023-02-19T16:03:23;10.10;99.90
22471;DHT22;11402;51.374;6.594;2023-02-19T16:08:30;10.00;99.90
22471;DHT22;11402;51.374;6.594;2023-02-19T16:10:58;10.00;99.90
22471;DHT22;11402;51.374;6.594;2023-02-19T16:13:29;9.80;99.90
22471;DHT22;11402;51.374;6.594;2023-02-19T16:16:12;9.80;99.90
22471;DHT22;11402;51.374;6.594;2023-02-19T16:18:44;9.80;99.90
22471;DHT22;11402;51.374;6.594;2023-02-19T16:21:14;9.90;99.90
22471;DHT22;11402;51.374;6.594;2023-02-19T16:23:44;9.70;99.90
22471;DHT22;11402;51.374;6.594;2023-02-19T16:26:10;9.70;99.90
22471;DHT22;11402;51.374;6.594;2023-02-19T16:28:37;9.60;99.90
22471;DHT22;11402;51.374;6.594;2023-02-19T16:31:06;9.70;99.90
22471;DHT22;11402;51.374;6.594;2023-02-19T16:33:46;9.60;99.90
22471;DHT22;11402;51.374;6.594;2023-02-19T16:41:33;9.70;99.90
22471;DHT22;11402;51.374;6.594;2023-02-19T16:43:59;9.70;99.90
22471;DHT22;11402;51.374;6.594;2023-02-19T16:46:31;9.60;99.90
22471;DHT22;11402;51.374;6.594;2023-02-19T16:48:57;9.50;99.90
22471;DHT22;11402;51.374;6.594;2023-02-19T16:51:24;9.50;99.90
22471;DHT22;11402;51.374;6.594;2023-02-19T16:53:51;9.50;99.90
22471;DHT22;11402;51.374;6.594;2023-02-19T16:56:18;9.60;99.90
22471;DHT22;11402;51.374;6.594;2023-02-19T16:58:50;9.60;99.90
22471;DHT22;11402;51.374;6.594;2023-02-19T17:01:16;9.40;99.90
22471;DHT22;11402;51.374;6.594;2023-02-19T17:03:43;9.40;99.90
22471;DHT22;11402;51.374;6.594;2023-02-19T17:06:10;9.50;99.90
22471;DHT22;11402;51.374;6.594;2023-02-19T17:08:36;9.40;99.90
22471;DHT22;11402;51.374;6.594;2023-02-19T17:11:10;9.50;99.90
22471;DHT22;11402;51.374;6.594;2023-02-19T17:13:36;9.10;99.90
22471;DHT22;11402;51.374;6.594;2023-02-19T17:16:02;9.00;99.90
22471;DHT22;11402;51.374;6.594;2023-02-19T17:18:27;9.00;99.90
22471;DHT22;11402;51.374;6.594;2023-02-19T17:21:31;9.10;99.90
22471;DHT22;11402;51.374;6.594;2023-02-19T17:23:51;9.10;99.90
22471;DHT22;11402;51.374;6.594;2023-02-19T17:26:24;9.10;99.90
22471;DHT22;11402;51.374;6.594;2023-02-19T17:28:50;9.00;99.90
22471;DHT22;11402;51.374;6.594;2023-02-19T17:31:15;9.00;99.90
22471;DHT22;11402;51.374;6.594;2023-02-19T17:33:41;9.00;99.90
22471;DHT22;11402;51.374;6.594;2023-02-19T17:36:14;8.80;99.90
22471;DHT22;11402;51.374;6.594;2023-02-19T17:38:40;9.00;99.90
22471;DHT22;11402;51.374;6.594;2023-02-19T17:41:06;9.10;99.90